sensor_id;sensor_type;location;lat;lon;timestamp;pressure;altitude;pressure_sealevel;temperature;humidity
20971;BME280;10644;48.834;10.088;2023-09-19T00:01:13;96296.69;;;21.45;60.56
20971;BME280;10644;48.834;10.088;2023-09-19T00:03:39;96294.88;;;21.38;60.56
20971;BME280;10644;48.834;10.088;2023-09-19T00:06:07;96302.53;;;21.39;60.60
20971;BME280;10644;48.834;10.088;2023-09-19T00:08:34;96301.41;;;21.42;60.41
20971;BME280;10644;48.834;10.088;2023-09-19T00:10:59;96298.47;;;21.37;60.46
20971;BME280;10644;48.834;10.088;2023-09-19T00:13:29;96303.94;;;21.26;60.56
20971;BME280;10644;48.834;10.088;2023-09-19T00:15:56;96301.00;;;21.29;60.33
20971;BME280;10644;48.834;10.088;2023-09-19T00:18:25;96302.84;;;21.36;60.17
20971;BME280;10644;48.834;10.088;2023-09-19T00:20:59;96297.97;;;21.33;60.05
20971;BME280;10644;48.834;10.088;2023-09-19T00:23:25;96296.63;;;21.21;60.37
20971;BME280;10644;48.834;10.088;2023-09-19T00:25:51;96299.03;;;21.23;60.31
20971;BME280;10644;48.834;10.088;2023-09-19T00:28:17;96279.16;;;21.22;60.12
20971;BME280;10644;48.834;10.088;2023-09-19T00:30:44;96281.78;;;21.22;60.32
20971;BME280;10644;48.834;10.088;2023-09-19T00:33:10;96279.22;;;21.30;59.84
20971;BME280;10644;48.834;10.088;2023-09-19T00:35:36;96283.31;;;21.32;59.75
20971;BME280;10644;48.834;10.088;2023-09-19T00:38:02;96285.09;;;21.40;59.74
20971;BME280;10644;48.834;10.088;2023-09-19T00:40:29;96285.41;;;21.37;59.45
20971;BME280;10644;48.834;10.088;2023-09-19T00:42:57;96290.00;;;21.35;59.45
20971;BME280;10644;48.834;10.088;2023-09-19T00:45:29;96286.69;;;21.25;59.94
20971;BME280;10644;48.834;10.088;2023-09-19T00:47:54;96277.91;;;21.34;59.78
20971;BME280;10644;48.834;10.088;2023-09-19T00:50:22;96290.84;;;21.51;59.49
20971;BME280;10644;48.834;10.088;2023-09-19T00:52:49;96281.88;;;21.54;59.47
20971;BME280;10644;48.834;10.088;2023-09-19T00:55:16;96277.81;;;21.59;59.09
20971;BME280;10644;48.834;10.088;2023-09-19T00:57:44;96278.09;;;21.40;59.36
20971;BME280;10644;48.834;10.088;2023-09-19T01:00:10;96294.38;;;21.34;60.01
20971;BME280;10644;48.834;10.088;2023-09-19T01:02:41;96294.81;;;21.22;60.52
20971;BME280;10644;48.834;10.088;2023-09-19T01:05:08;96301.19;;;21.27;60.32
20971;BME280;10644;48.834;10.088;2023-09-19T01:07:33;96302.53;;;21.39;60.23
20971;BME280;10644;48.834;10.088;2023-09-19T01:10:00;96307.53;;;21.25;60.44
20971;BME280;10644;48.834;10.088;2023-09-19T01:12:34;96300.03;;;21.22;60.71
20971;BME280;10644;48.834;10.088;2023-09-19T01:15:14;96316.16;;;21.25;60.71
20971;BME280;10644;48.834;10.088;2023-09-19T01:18:40;96300.09;;;21.38;60.32
20971;BME280;10644;48.834;10.088;2023-09-19T01:20:53;96316.22;;;21.41;60.63
20971;BME280;10644;48.834;10.088;2023-09-19T01:32:03;96311.91;;;21.16;61.76
20971;BME280;10644;48.834;10.088;2023-09-19T01:34:45;96326.19;;;21.12;61.91
20971;BME280;10644;48.834;10.088;2023-09-19T01:37:13;96322.38;;;20.99;62.74
20971;BME280;10644;48.834;10.088;2023-09-19T01:39:40;96315.56;;;21.06;62.72
20971;BME280;10644;48.834;10.088;2023-09-19T01:42:18;96326.41;;;21.19;62.10
20971;BME280;10644;48.834;10.088;2023-09-19T01:47:33;96330.22;;;21.32;61.59
20971;BME280;10644;48.834;10.088;2023-09-19T01:50:26;96349.13;;;21.42;61.32
20971;BME280;10644;48.834;10.088;2023-09-19T01:52:59;96345.84;;;21.32;61.87
20971;BME280;10644;48.834;10.088;2023-09-19T01:55:30;96339.78;;;21.24;61.63
20971;BME280;10644;48.834;10.088;2023-09-19T01:58:25;96340.91;;;21.21;61.43
20971;BME280;10644;48.834;10.088;2023-09-19T02:00:54;96344.09;;;21.07;62.45
20971;BME280;10644;48.834;10.088;2023-09-19T02:03:24;96341.63;;;21.06;61.82
20971;BME280;10644;48.834;10.088;2023-09-19T02:05:50;96341.63;;;21.06;62.15
20971;BME280;10644;48.834;10.088;2023-09-19T02:08:20;96345.53;;;21.02;61.72
20971;BME280;10644;48.834;10.088;2023-09-19T02:10:48;96356.59;;;21.04;61.78
20971;BME280;10644;48.834;10.088;2023-09-19T02:13:18;96345.22;;;21.05;61.60
20971;BME280;10644;48.834;10.088;2023-09-19T02:15:44;96348.81;;;21.12;61.60
20971;BME280;10644;48.834;10.088;2023-09-19T02:18:10;96343.94;;;21.09;61.15
20971;BME280;10644;48.834;10.088;2023-09-19T02:20:39;96352.38;;;21.03;61.20
20971;BME280;10644;48.834;10.088;2023-09-19T02:23:05;96350.31;;;20.89;61.28
20971;BME280;10644;48.834;10.088;2023-09-19T02:25:33;96352.75;;;20.65;61.63
20971;BME280;10644;48.834;10.088;2023-09-19T02:28:00;96354.28;;;20.75;61.34
20971;BME280;10644;48.834;10.088;2023-09-19T02:30:28;96350.50;;;20.70;61.34
20971;BME280;10644;48.834;10.088;2023-09-19T02:32:54;96356.84;;;20.67;61.64
20971;BME280;10644;48.834;10.088;2023-09-19T02:35:22;96361.56;;;20.72;61.49
20971;BME280;10644;48.834;10.088;2023-09-19T02:37:48;96369.81;;;20.85;61.40
20971;BME280;10644;48.834;10.088;2023-09-19T02:40:14;96357.19;;;20.90;61.23
20971;BME280;10644;48.834;10.088;2023-09-19T02:42:53;96362.63;;;20.79;61.45
20971;BME280;10644;48.834;10.088;2023-09-19T02:45:20;96372.06;;;20.80;61.48
20971;BME280;10644;48.834;10.088;2023-09-19T02:47:48;96374.06;;;20.86;61.07
20971;BME280;10644;48.834;10.088;2023-09-19T02:50:15;96371.53;;;20.94;61.15
20971;BME280;10644;48.834;10.088;2023-09-19T02:52:42;96369.75;;;20.77;61.45
20971;BME280;10644;48.834;10.088;2023-09-19T02:55:12;96366.84;;;20.80;61.36
20971;BME280;10644;48.834;10.088;2023-09-19T02:57:48;96373.88;;;20.62;61.91
20971;BME280;10644;48.834;10.088;2023-09-19T03:00:21;96381.00;;;20.60;62.75
20971;BME280;10644;48.834;10.088;2023-09-19T03:02:53;96381.63;;;20.54;63.56
20971;BME280;10644;48.834;10.088;2023-09-19T03:05:22;96389.97;;;20.40;64.39
20971;BME280;10644;48.834;10.088;2023-09-19T03:07:49;96397.09;;;20.38;65.06
20971;BME280;10644;48.834;10.088;2023-09-19T03:10:21;96386.31;;;20.33;64.98
20971;BME280;10644;48.834;10.088;2023-09-19T03:12:49;96376.00;;;20.41;64.75
20971;BME280;10644;48.834;10.088;2023-09-19T03:15:15;96376.44;;;20.36;64.66
20971;BME280;10644;48.834;10.088;2023-09-19T03:17:47;96390.63;;;20.42;64.47
20971;BME280;10644;48.834;10.088;2023-09-19T03:20:16;96392.41;;;20.41;64.85
20971;BME280;10644;48.834;10.088;2023-09-19T03:22:45;96377.03;;;20.48;64.18
20971;BME280;10644;48.834;10.088;2023-09-19T03:25:11;96399.09;;;20.61;64.15
20971;BME280;10644;48.834;10.088;2023-09-19T03:27:48;96397.88;;;20.73;63.33
20971;BME280;10644;48.834;10.088;2023-09-19T03:30:14;96402.28;;;20.73;63.53
20971;BME280;10644;48.834;10.088;2023-09-19T03:32:46;96398.94;;;20.63;63.88
20971;BME280;10644;48.834;10.088;2023-09-19T03:35:15;96402.16;;;20.57;63.73
20971;BME280;10644;48.834;10.088;2023-09-19T03:37:41;96400.59;;;20.64;63.79
20971;BME280;10644;48.834;10.088;2023-09-19T03:40:08;96406.66;;;20.72;63.59
20971;BME280;10644;48.834;10.088;2023-09-19T03:42:38;96401.41;;;20.64;63.72
20971;BME280;10644;48.834;10.088;2023-09-19T03:45:07;96416.75;;;20.75;63.50
20971;BME280;10644;48.834;10.088;2023-09-19T03:47:38;96396.75;;;20.76;63.18
20971;BME280;10644;48.834;10.088;2023-09-19T03:50:04;96401.69;;;20.79;63.47
20971;BME280;10644;48.834;10.088;2023-09-19T03:52:30;96399.13;;;20.87;63.11
20971;BME280;10644;48.834;10.088;2023-09-19T03:54:56;96398.16;;;20.88;63.13
20971;BME280;10644;48.834;10.088;2023-09-19T03:57:23;96398.88;;;20.90;62.85
20971;BME280;10644;48.834;10.088;2023-09-19T03:59:49;96404.94;;;20.98;62.75
20971;BME280;10644;48.834;10.088;2023-09-19T04:02:14;96390.81;;;21.01;62.61
20971;BME280;10644;48.834;10.088;2023-09-19T04:04:50;96389.25;;;20.90;62.75
20971;BME280;10644;48.834;10.088;2023-09-19T04:07:16;96403.97;;;20.99;62.48
20971;BME280;10644;48.834;10.088;2023-09-19T04:09:42;96400.38;;;21.00;62.56
20971;BME280;10644;48.834;10.088;2023-09-19T04:12:10;96390.81;;;21.01;62.42
20971;BME280;10644;48.834;10.088;2023-09-19T04:14:36;96385.59;;;21.01;62.36
20971;BME280;10644;48.834;10.088;2023-09-19T04:17:02;96399.88;;;20.97;62.74
20971;BME280;10644;48.834;10.088;2023-09-19T04:19:35;96391.44;;;20.85;62.95
20971;BME280;10644;48.834;10.088;2023-09-19T04:22:00;96395.44;;;20.89;63.04
20971;BME280;10644;48.834;10.088;2023-09-19T04:24:26;96402.41;;;20.89;63.22
20971;BME280;10644;48.834;10.088;2023-09-19T04:26:51;96403.75;;;20.93;62.91
20971;BME280;10644;48.834;10.088;2023-09-19T04:29:28;96408.19;;;20.83;63.24
20971;BME280;10644;48.834;10.088;2023-09-19T04:31:54;96402.25;;;20.90;63.21
20971;BME280;10644;48.834;10.088;2023-09-19T04:34:27;96406.50;;;20.91;63.14
20971;BME280;10644;48.834;10.088;2023-09-19T04:37:00;96402.63;;;20.95;63.32
20971;BME280;10644;48.834;10.088;2023-09-19T04:39:26;96403.00;;;21.00;62.98
20971;BME280;10644;48.834;10.088;2023-09-19T04:41:52;96393.59;;;21.07;62.61
20971;BME280;10644;48.834;10.088;2023-09-19T04:44:18;96398.66;;;21.09;62.43
20971;BME280;10644;48.834;10.088;2023-09-19T04:46:43;96407.81;;;21.13;62.50
20971;BME280;10644;48.834;10.088;2023-09-19T04:49:12;96422.47;;;21.14;62.03
20971;BME280;10644;48.834;10.088;2023-09-19T04:51:37;96419.44;;;21.01;62.56
20971;BME280;10644;48.834;10.088;2023-09-19T04:54:06;96427.56;;;20.98;62.43
20971;BME280;10644;48.834;10.088;2023-09-19T04:56:36;96430.38;;;20.87;62.96
20971;BME280;10644;48.834;10.088;2023-09-19T04:59:05;96435.22;;;20.82;63.00
20971;BME280;10644;48.834;10.088;2023-09-19T05:01:33;96432.31;;;20.85;62.84
20971;BME280;10644;48.834;10.088;2023-09-19T05:04:04;96434.47;;;20.72;63.36
20971;BME280;10644;48.834;10.088;2023-09-19T05:06:32;96440.59;;;20.63;63.95
20971;BME280;10644;48.834;10.088;2023-09-19T05:09:01;96433.53;;;20.73;63.48
20971;BME280;10644;48.834;10.088;2023-09-19T05:11:26;96434.84;;;20.77;63.50
20971;BME280;10644;48.834;10.088;2023-09-19T05:13:52;96447.81;;;20.69;63.91
20971;BME280;10644;48.834;10.088;2023-09-19T05:16:23;96448.97;;;20.74;63.74
20971;BME280;10644;48.834;10.088;2023-09-19T05:18:48;96450.28;;;20.70;64.29
20971;BME280;10644;48.834;10.088;2023-09-19T05:21:15;96470.41;;;20.86;64.48
20971;BME280;10644;48.834;10.088;2023-09-19T05:23:48;96448.09;;;20.66;64.66
20971;BME280;10644;48.834;10.088;2023-09-19T05:26:22;96462.47;;;20.70;64.86
20971;BME280;10644;48.834;10.088;2023-09-19T05:28:53;96457.31;;;20.78;64.18
20971;BME280;10644;48.834;10.088;2023-09-19T05:31:31;96470.69;;;20.83;64.03
20971;BME280;10644;48.834;10.088;2023-09-19T05:33:56;96465.50;;;20.83;63.97
20971;BME280;10644;48.834;10.088;2023-09-19T05:36:22;96462.47;;;20.70;64.43
20971;BME280;10644;48.834;10.088;2023-09-19T05:38:48;96458.28;;;20.77;63.93
20971;BME280;10644;48.834;10.088;2023-09-19T05:41:21;96464.47;;;20.76;64.38
20971;BME280;10644;48.834;10.088;2023-09-19T05:43:55;96461.72;;;20.95;64.17
20971;BME280;10644;48.834;10.088;2023-09-19T05:46:31;96467.59;;;20.79;64.18
20971;BME280;10644;48.834;10.088;2023-09-19T05:49:16;96469.69;;;20.76;63.94
20971;BME280;10644;48.834;10.088;2023-09-19T05:51:50;96478.09;;;20.70;64.51
20971;BME280;10644;48.834;10.088;2023-09-19T06:22:55;96507.59;;;21.31;63.63
20971;BME280;10644;48.834;10.088;2023-09-19T06:56:00;96546.41;;;20.81;67.56
20971;BME280;10644;48.834;10.088;2023-09-19T06:58:36;96552.31;;;20.56;68.21
20971;BME280;10644;48.834;10.088;2023-09-19T07:01:22;96551.94;;;20.51;68.04
20971;BME280;10644;48.834;10.088;2023-09-19T07:04:22;96554.78;;;20.58;68.19
20971;BME280;10644;48.834;10.088;2023-09-19T07:10:18;96593.00;;;20.30;68.20
20971;BME280;10644;48.834;10.088;2023-09-19T07:42:15;96628.31;;;19.87;66.30
20971;BME280;10644;48.834;10.088;2023-09-19T07:44:52;96638.03;;;19.85;65.59
20971;BME280;10644;48.834;10.088;2023-09-19T07:47:20;96619.50;;;19.61;65.16
20971;BME280;10644;48.834;10.088;2023-09-19T07:49:48;96630.44;;;19.64;66.04
20971;BME280;10644;48.834;10.088;2023-09-19T07:52:14;96624.91;;;19.77;66.56
20971;BME280;10644;48.834;10.088;2023-09-19T07:54:56;96618.63;;;19.70;67.21
20971;BME280;10644;48.834;10.088;2023-09-19T07:57:24;96613.47;;;19.51;67.53
20971;BME280;10644;48.834;10.088;2023-09-19T08:00:22;96626.16;;;19.73;66.21
20971;BME280;10644;48.834;10.088;2023-09-19T08:02:51;96636.50;;;19.92;65.83
20971;BME280;10644;48.834;10.088;2023-09-19T08:05:36;96632.88;;;19.75;66.10
20971;BME280;10644;48.834;10.088;2023-09-19T08:08:07;96629.03;;;19.70;66.22
20971;BME280;10644;48.834;10.088;2023-09-19T08:10:35;96639.41;;;19.89;65.67
20971;BME280;10644;48.834;10.088;2023-09-19T08:13:07;96633.63;;;20.14;65.87
20971;BME280;10644;48.834;10.088;2023-09-19T08:15:45;96647.28;;;20.25;65.26
20971;BME280;10644;48.834;10.088;2023-09-19T08:18:23;96639.53;;;20.43;64.92
20971;BME280;10644;48.834;10.088;2023-09-19T08:20:58;96654.75;;;20.65;64.52
20971;BME280;10644;48.834;10.088;2023-09-19T08:23:34;96658.38;;;20.54;63.70
20971;BME280;10644;48.834;10.088;2023-09-19T08:26:22;96653.22;;;20.45;64.87
20971;BME280;10644;48.834;10.088;2023-09-19T08:29:06;96661.97;;;20.53;63.79
20971;BME280;10644;48.834;10.088;2023-09-19T08:31:37;96680.78;;;20.65;64.07
20971;BME280;10644;48.834;10.088;2023-09-19T08:34:16;96668.81;;;20.54;64.42
20971;BME280;10644;48.834;10.088;2023-09-19T08:36:51;96662.09;;;20.52;64.72
20971;BME280;10644;48.834;10.088;2023-09-19T08:39:37;96659.50;;;20.52;65.05
20971;BME280;10644;48.834;10.088;2023-09-19T08:42:23;96666.81;;;20.66;64.82
20971;BME280;10644;48.834;10.088;2023-09-19T08:45:00;96679.25;;;20.72;64.92
20971;BME280;10644;48.834;10.088;2023-09-19T08:47:34;96663.56;;;20.91;64.32
20971;BME280;10644;48.834;10.088;2023-09-19T08:50:23;96670.78;;;20.97;64.45
20971;BME280;10644;48.834;10.088;2023-09-19T08:52:55;96667.09;;;21.17;63.21
20971;BME280;10644;48.834;10.088;2023-09-19T08:55:27;96666.06;;;21.27;62.90
20971;BME280;10644;48.834;10.088;2023-09-19T08:58:00;96663.22;;;21.21;62.50
20971;BME280;10644;48.834;10.088;2023-09-19T09:00:31;96670.50;;;21.00;63.40
20971;BME280;10644;48.834;10.088;2023-09-19T09:02:58;96663.81;;;21.15;62.99
20971;BME280;10644;48.834;10.088;2023-09-19T09:05:32;96655.72;;;21.35;62.43
20971;BME280;10644;48.834;10.088;2023-09-19T09:08:11;96654.06;;;21.69;62.85
20971;BME280;10644;48.834;10.088;2023-09-19T09:10:57;96659.81;;;21.73;61.43
20971;BME280;10644;48.834;10.088;2023-09-19T09:20:25;96662.88;;;21.68;60.51
20971;BME280;10644;48.834;10.088;2023-09-19T09:22:54;96664.56;;;21.60;60.41
20971;BME280;10644;48.834;10.088;2023-09-19T09:25:47;96669.50;;;21.63;61.28
20971;BME280;10644;48.834;10.088;2023-09-19T09:28:19;96690.63;;;21.60;60.44
20971;BME280;10644;48.834;10.088;2023-09-19T09:30:45;96686.69;;;21.56;60.59
20971;BME280;10644;48.834;10.088;2023-09-19T09:33:12;96672.19;;;21.71;60.49
20971;BME280;10644;48.834;10.088;2023-09-19T09:38:21;96674.47;;;21.56;60.52
20971;BME280;10644;48.834;10.088;2023-09-19T09:40:48;96677.59;;;21.42;60.62
20971;BME280;10644;48.834;10.088;2023-09-19T09:43:30;96684.75;;;21.58;60.57
20971;BME280;10644;48.834;10.088;2023-09-19T09:46:14;96684.81;;;21.66;59.64
20971;BME280;10644;48.834;10.088;2023-09-19T09:51:42;96673.16;;;21.70;58.83
20971;BME280;10644;48.834;10.088;2023-09-19T09:54:13;96675.75;;;21.70;58.81
20971;BME280;10644;48.834;10.088;2023-09-19T09:56:58;96673.81;;;21.72;59.08
20971;BME280;10644;48.834;10.088;2023-09-19T09:59:49;96663.53;;;21.70;59.38
20971;BME280;10644;48.834;10.088;2023-09-19T10:02:19;96664.94;;;21.65;58.72
20971;BME280;10644;48.834;10.088;2023-09-19T10:04:52;96664.28;;;21.63;58.88
20971;BME280;10644;48.834;10.088;2023-09-19T10:07:36;96675.97;;;21.76;58.75
20971;BME280;10644;48.834;10.088;2023-09-19T10:10:07;96679.69;;;21.91;59.59
20971;BME280;10644;48.834;10.088;2023-09-19T10:12:51;96692.09;;;21.97;58.03
20971;BME280;10644;48.834;10.088;2023-09-19T10:15:26;96683.41;;;21.89;57.86
20971;BME280;10644;48.834;10.088;2023-09-19T10:18:05;96677.00;;;21.66;57.39
20971;BME280;10644;48.834;10.088;2023-09-19T10:20:45;96674.25;;;21.32;58.94
20971;BME280;10644;48.834;10.088;2023-09-19T10:23:21;96669.56;;;21.36;59.17
20971;BME280;10644;48.834;10.088;2023-09-19T10:26:05;96660.84;;;21.45;58.21
20971;BME280;10644;48.834;10.088;2023-09-19T10:33:07;96662.16;;;21.84;58.45
20971;BME280;10644;48.834;10.088;2023-09-19T10:42:53;96664.06;;;22.92;55.50
20971;BME280;10644;48.834;10.088;2023-09-19T10:45:32;96656.28;;;23.08;55.50
20971;BME280;10644;48.834;10.088;2023-09-19T10:48:13;96654.25;;;22.78;55.16
20971;BME280;10644;48.834;10.088;2023-09-19T10:51:15;96663.47;;;22.98;55.43
20971;BME280;10644;48.834;10.088;2023-09-19T10:56:54;96657.56;;;22.96;55.29
20971;BME280;10644;48.834;10.088;2023-09-19T10:59:27;96658.88;;;23.00;54.15
20971;BME280;10644;48.834;10.088;2023-09-19T11:01:59;96661.66;;;22.98;53.60
20971;BME280;10644;48.834;10.088;2023-09-19T11:04:33;96654.41;;;22.76;53.42
20971;BME280;10644;48.834;10.088;2023-09-19T11:09:55;96661.53;;;22.41;53.57
20971;BME280;10644;48.834;10.088;2023-09-19T11:15:07;96660.25;;;22.37;54.75
20971;BME280;10644;48.834;10.088;2023-09-19T11:17:42;96641.91;;;22.54;53.55
20971;BME280;10644;48.834;10.088;2023-09-19T11:25:58;96637.91;;;23.33;52.65
20971;BME280;10644;48.834;10.088;2023-09-19T11:28:43;96643.78;;;23.83;51.50
20971;BME280;10644;48.834;10.088;2023-09-19T11:31:42;96628.59;;;23.79;50.92
20971;BME280;10644;48.834;10.088;2023-09-19T11:35:06;96635.44;;;24.04;51.32
20971;BME280;10644;48.834;10.088;2023-09-19T11:40:26;96640.03;;;24.18;49.61
20971;BME280;10644;48.834;10.088;2023-09-19T12:31:15;96597.09;;;26.23;39.85
20971;BME280;10644;48.834;10.088;2023-09-19T12:33:54;96581.25;;;26.31;40.52
20971;BME280;10644;48.834;10.088;2023-09-19T12:43:04;96579.53;;;25.72;40.43
20971;BME280;10644;48.834;10.088;2023-09-19T12:56:55;96578.06;;;26.64;38.50
20971;BME280;10644;48.834;10.088;2023-09-19T12:59:38;96567.78;;;26.84;38.27
20971;BME280;10644;48.834;10.088;2023-09-19T13:02:24;96558.13;;;26.91;38.66
20971;BME280;10644;48.834;10.088;2023-09-19T13:04:56;96558.09;;;26.84;38.36
20971;BME280;10644;48.834;10.088;2023-09-19T14:36:22;96528.88;;;27.91;37.22
20971;BME280;10644;48.834;10.088;2023-09-19T14:39:26;96524.25;;;27.93;37.18
20971;BME280;10644;48.834;10.088;2023-09-19T14:41:54;96539.59;;;27.83;37.05
20971;BME280;10644;48.834;10.088;2023-09-19T14:47:20;96527.63;;;27.59;37.22
20971;BME280;10644;48.834;10.088;2023-09-19T14:50:01;96512.53;;;27.47;37.67
20971;BME280;10644;48.834;10.088;2023-09-19T14:52:34;96517.81;;;27.47;37.00
20971;BME280;10644;48.834;10.088;2023-09-19T14:55:02;96520.91;;;27.29;36.93
20971;BME280;10644;48.834;10.088;2023-09-19T14:57:29;96522.69;;;27.08;36.58
20971;BME280;10644;48.834;10.088;2023-09-19T15:00:25;96526.66;;;26.97;37.88
20971;BME280;10644;48.834;10.088;2023-09-19T15:02:53;96512.53;;;26.84;37.54
20971;BME280;10644;48.834;10.088;2023-09-19T15:05:21;96520.78;;;26.60;37.84
20971;BME280;10644;48.834;10.088;2023-09-19T15:07:46;96525.91;;;26.68;37.97
20971;BME280;10644;48.834;10.088;2023-09-19T15:10:16;96508.09;;;26.49;38.13
20971;BME280;10644;48.834;10.088;2023-09-19T15:12:52;96515.44;;;26.39;38.60
20971;BME280;10644;48.834;10.088;2023-09-19T15:15:25;96505.19;;;26.44;38.86
20971;BME280;10644;48.834;10.088;2023-09-19T15:17:50;96504.94;;;26.39;39.26
20971;BME280;10644;48.834;10.088;2023-09-19T15:20:16;96517.81;;;26.34;39.50
20971;BME280;10644;48.834;10.088;2023-09-19T15:22:43;96509.19;;;26.40;39.52
20971;BME280;10644;48.834;10.088;2023-09-19T15:25:08;96512.34;;;26.50;39.17
20971;BME280;10644;48.834;10.088;2023-09-19T15:27:33;96513.44;;;26.41;39.17
20971;BME280;10644;48.834;10.088;2023-09-19T15:30:00;96523.31;;;26.39;39.40
20971;BME280;10644;48.834;10.088;2023-09-19T15:32:30;96522.16;;;26.27;39.81
20971;BME280;10644;48.834;10.088;2023-09-19T15:34:56;96515.00;;;26.35;39.55
20971;BME280;10644;48.834;10.088;2023-09-19T15:37:21;96503.31;;;26.38;40.05
20971;BME280;10644;48.834;10.088;2023-09-19T15:39:47;96511.28;;;26.59;39.51
20971;BME280;10644;48.834;10.088;2023-09-19T15:42:15;96508.09;;;26.63;39.20
20971;BME280;10644;48.834;10.088;2023-09-19T15:44:41;96510.16;;;26.68;39.15
20971;BME280;10644;48.834;10.088;2023-09-19T15:47:08;96508.00;;;26.57;39.34
20971;BME280;10644;48.834;10.088;2023-09-19T15:49:36;96508.19;;;26.41;39.98
20971;BME280;10644;48.834;10.088;2023-09-19T15:52:04;96505.78;;;26.25;40.21
20971;BME280;10644;48.834;10.088;2023-09-19T15:54:31;96509.50;;;26.16;40.21
20971;BME280;10644;48.834;10.088;2023-09-19T15:56:59;96506.25;;;26.14;40.59
20971;BME280;10644;48.834;10.088;2023-09-19T15:59:24;96505.13;;;26.23;40.51
20971;BME280;10644;48.834;10.088;2023-09-19T16:01:50;96504.63;;;26.13;39.97
20971;BME280;10644;48.834;10.088;2023-09-19T16:04:15;96502.25;;;26.18;40.16
20971;BME280;10644;48.834;10.088;2023-09-19T16:06:44;96500.06;;;26.07;40.62
20971;BME280;10644;48.834;10.088;2023-09-19T16:09:09;96506.44;;;25.98;41.11
20971;BME280;10644;48.834;10.088;2023-09-19T16:11:38;96498.16;;;25.86;40.65
20971;BME280;10644;48.834;10.088;2023-09-19T16:14:04;96502.06;;;26.05;40.59
20971;BME280;10644;48.834;10.088;2023-09-19T16:16:33;96507.88;;;26.15;40.33
20971;BME280;10644;48.834;10.088;2023-09-19T16:19:01;96498.28;;;25.93;40.84
20971;BME280;10644;48.834;10.088;2023-09-19T16:21:28;96510.06;;;25.97;40.70
20971;BME280;10644;48.834;10.088;2023-09-19T16:23:56;96500.97;;;25.85;40.81
20971;BME280;10644;48.834;10.088;2023-09-19T16:26:22;96499.78;;;25.87;40.92
20971;BME280;10644;48.834;10.088;2023-09-19T16:28:54;96495.84;;;25.91;41.28
20971;BME280;10644;48.834;10.088;2023-09-19T16:31:21;96503.59;;;25.85;41.55
20971;BME280;10644;48.834;10.088;2023-09-19T16:33:49;96498.59;;;25.90;41.46
20971;BME280;10644;48.834;10.088;2023-09-19T16:36:18;96498.59;;;25.90;42.00
20971;BME280;10644;48.834;10.088;2023-09-19T16:38:46;96497.69;;;25.83;42.00
20971;BME280;10644;48.834;10.088;2023-09-19T16:41:13;96510.41;;;25.94;41.57
20971;BME280;10644;48.834;10.088;2023-09-19T16:43:40;96507.22;;;25.98;41.46
20971;BME280;10644;48.834;10.088;2023-09-19T16:46:08;96510.13;;;26.03;41.28
20971;BME280;10644;48.834;10.088;2023-09-19T16:48:36;96497.91;;;25.96;40.70
20971;BME280;10644;48.834;10.088;2023-09-19T16:51:08;96495.84;;;25.91;40.86
20971;BME280;10644;48.834;10.088;2023-09-19T16:53:35;96501.09;;;25.91;41.20
20971;BME280;10644;48.834;10.088;2023-09-19T16:56:05;96480.16;;;25.69;40.84
20971;BME280;10644;48.834;10.088;2023-09-19T16:58:40;96501.94;;;25.69;41.41
20971;BME280;10644;48.834;10.088;2023-09-19T17:01:07;96499.13;;;25.42;42.01
20971;BME280;10644;48.834;10.088;2023-09-19T17:03:41;96499.75;;;25.44;41.52
20971;BME280;10644;48.834;10.088;2023-09-19T17:06:07;96494.44;;;25.52;41.73
20971;BME280;10644;48.834;10.088;2023-09-19T17:08:34;96502.66;;;25.49;41.74
20971;BME280;10644;48.834;10.088;2023-09-19T17:11:09;96500.28;;;25.39;41.73
20971;BME280;10644;48.834;10.088;2023-09-19T17:13:36;96496.50;;;25.42;42.09
20971;BME280;10644;48.834;10.088;2023-09-19T17:16:10;96506.28;;;25.48;41.96
20971;BME280;10644;48.834;10.088;2023-09-19T17:18:36;96501.78;;;25.34;42.06
20971;BME280;10644;48.834;10.088;2023-09-19T17:21:03;96496.22;;;25.37;42.15
20971;BME280;10644;48.834;10.088;2023-09-19T17:23:31;96499.47;;;25.39;42.18
20971;BME280;10644;48.834;10.088;2023-09-19T17:28:33;96517.78;;;25.47;42.66
20971;BME280;10644;48.834;10.088;2023-09-19T17:31:00;96508.00;;;25.41;43.05
20971;BME280;10644;48.834;10.088;2023-09-19T17:33:27;96512.13;;;25.35;43.04
20971;BME280;10644;48.834;10.088;2023-09-19T17:36:25;96515.66;;;25.42;42.48
20971;BME280;10644;48.834;10.088;2023-09-19T17:38:56;96519.75;;;25.45;42.17
20971;BME280;10644;48.834;10.088;2023-09-19T17:41:25;96516.84;;;25.40;41.86
20971;BME280;10644;48.834;10.088;2023-09-19T17:43:58;96533.50;;;25.47;41.68
20971;BME280;10644;48.834;10.088;2023-09-19T17:46:25;96531.22;;;25.44;41.79
20971;BME280;10644;48.834;10.088;2023-09-19T17:48:54;96537.84;;;25.40;42.07
20971;BME280;10644;48.834;10.088;2023-09-19T17:51:20;96538.53;;;25.34;42.49
20971;BME280;10644;48.834;10.088;2023-09-19T17:53:49;96538.28;;;25.29;42.60
20971;BME280;10644;48.834;10.088;2023-09-19T17:56:15;96538.28;;;25.21;42.79
20971;BME280;10644;48.834;10.088;2023-09-19T17:58:42;96538.34;;;25.13;42.59
20971;BME280;10644;48.834;10.088;2023-09-19T18:01:15;96533.44;;;25.10;42.84
20971;BME280;10644;48.834;10.088;2023-09-19T18:03:44;96546.56;;;25.10;42.80
20971;BME280;10644;48.834;10.088;2023-09-19T18:06:12;96547.72;;;25.07;43.15
20971;BME280;10644;48.834;10.088;2023-09-19T18:08:39;96547.63;;;25.01;43.12
20971;BME280;10644;48.834;10.088;2023-09-19T18:11:11;96553.28;;;24.90;43.46
20971;BME280;10644;48.834;10.088;2023-09-19T18:13:42;96549.06;;;24.81;43.67
20971;BME280;10644;48.834;10.088;2023-09-19T18:16:12;96548.47;;;24.71;43.80
20971;BME280;10644;48.834;10.088;2023-09-19T18:18:38;96549.50;;;24.62;44.05